Time;durP1;ratioP1;P1;durP2;ratioP2;P2;SDS_P1;SDS_P2;PMS_P1;PMS_P2;Temp;Humidity;BMP_temperature;BMP_pressure;BME280_temperature;BME280_humidity;BME280_pressure;Samples;Min_cycle;Max_cycle;Signal;HPM_P1;HPM_P2
2021/10/29 00:00:52;;;;;;;22.33;11.23;;;8.10;99.90;;;;;;5029376;28;20357;-75
2021/10/29 00:03:19;;;;;;;29.65;12.95;;;8.00;99.90;;;;;;5013540;28;20479;-76
2021/10/29 00:05:45;;;;;;;27.15;12.35;;;7.90;99.90;;;;;;5014285;28;20076;-75
2021/10/29 00:08:11;;;;;;;23.77;12.10;;;7.90;99.90;;;;;;5013985;28;20072;-75
2021/10/29 00:10:37;;;;;;;26.25;12.38;;;7.90;99.90;;;;;;5013360;28;20040;-75
2021/10/29 00:13:04;;;;;;;32.78;13.50;;;8.00;99.90;;;;;;5012379;28;20411;-75
2021/10/29 00:15:29;;;;;;;47.22;14.25;;;7.90;99.90;;;;;;5013049;28;20040;-74
2021/10/29 00:17:55;;;;;;;35.45;12.75;;;7.90;99.90;;;;;;5012924;28;20026;-74
2021/10/29 00:20:22;;;;;;;25.70;12.57;;;7.90;99.90;;;;;;5011943;28;20021;-76
2021/10/29 00:22:48;;;;;;;32.00;13.05;;;7.90;99.90;;;;;;5013546;28;20030;-75
2021/10/29 00:25:14;;;;;;;29.88;12.70;;;7.80;99.90;;;;;;5013729;28;20026;-75
2021/10/29 00:27:40;;;;;;;25.00;12.88;;;7.80;99.90;;;;;;5012090;28;20045;-75
2021/10/29 00:30:06;;;;;;;29.17;12.70;;;7.80;99.90;;;;;;5011534;28;20037;-75
2021/10/29 00:32:32;;;;;;;27.02;12.90;;;7.80;99.90;;;;;;5027969;28;20408;-75
2021/10/29 00:34:58;;;;;;;27.35;11.68;;;7.90;99.90;;;;;;5028455;28;20044;-75
2021/10/29 00:37:24;;;;;;;27.70;12.77;;;7.90;99.90;;;;;;5012309;28;20590;-75
2021/10/29 00:39:50;;;;;;;27.02;12.52;;;7.90;99.90;;;;;;5028526;28;20121;-75
2021/10/29 00:42:16;;;;;;;26.40;12.48;;;7.90;99.90;;;;;;5028383;28;20025;-78
2021/10/29 00:44:42;;;;;;;29.92;13.32;;;7.90;99.90;;;;;;5012988;28;20045;-75
2021/10/29 00:47:07;;;;;;;29.45;13.73;;;7.90;99.90;;;;;;5013398;28;20026;-75
2021/10/29 00:49:33;;;;;;;34.35;12.95;;;7.90;99.90;;;;;;5012613;28;20041;-75
2021/10/29 00:51:59;;;;;;;25.85;12.23;;;8.00;99.90;;;;;;5028372;28;20120;-75
2021/10/29 00:54:25;;;;;;;33.22;13.20;;;8.00;99.90;;;;;;5028164;28;20030;-76
2021/10/29 00:56:51;;;;;;;29.95;13.45;;;8.00;99.90;;;;;;5028823;28;20026;-76
2021/10/29 00:59:18;;;;;;;29.92;13.80;;;7.90;99.90;;;;;;5028146;28;20474;-76
2021/10/29 01:01:45;;;;;;;30.23;13.32;;;7.90;99.90;;;;;;5028817;28;20030;-75
2021/10/29 01:04:11;;;;;;;45.00;14.68;;;7.90;99.90;;;;;;5028062;28;20049;-75
2021/10/29 01:06:37;;;;;;;46.38;14.05;;;7.90;99.90;;;;;;5028137;28;20426;-76
2021/10/29 01:09:03;;;;;;;26.50;12.93;;;7.80;99.90;;;;;;5013497;28;20036;-76
2021/10/29 01:11:30;;;;;;;50.05;13.85;;;7.80;99.90;;;;;;5028293;28;20455;-76
2021/10/29 01:13:56;;;;;;;40.63;13.82;;;7.80;99.90;;;;;;5012296;28;20049;-76
2021/10/29 01:16:22;;;;;;;34.58;14.02;;;7.80;99.90;;;;;;5013083;28;20053;-76
2021/10/29 01:18:48;;;;;;;28.20;12.32;;;7.90;99.90;;;;;;5028814;28;20030;-76
2021/10/29 01:21:15;;;;;;;27.70;12.77;;;7.80;99.90;;;;;;5028604;28;20026;-76
2021/10/29 01:23:41;;;;;;;29.67;13.32;;;7.90;99.90;;;;;;5027873;28;20021;-74
2021/10/29 01:26:13;;;;;;;23.80;12.45;;;8.00;99.90;;;;;;5028228;28;20030;-74
2021/10/29 01:28:39;;;;;;;23.10;11.95;;;8.00;99.90;;;;;;5012205;28;20153;-75
2021/10/29 01:31:05;;;;;;;25.92;12.48;;;8.00;99.90;;;;;;5028035;28;20037;-75
2021/10/29 01:33:32;;;;;;;28.45;13.25;;;8.00;99.90;;;;;;5012662;28;20030;-75
2021/10/29 01:35:58;;;;;;;30.83;12.38;;;8.00;99.90;;;;;;5013124;28;20026;-75
2021/10/29 01:38:35;;;;;;;26.02;12.20;;;8.00;99.90;;;;;;5012653;28;20458;-75
2021/10/29 01:41:01;;;;;;;22.70;11.88;;;8.00;99.90;;;;;;5013183;28;20022;-75
2021/10/29 01:43:27;;;;;;;29.85;12.95;;;7.90;99.90;;;;;;5027706;28;20459;-76
2021/10/29 01:45:55;;;;;;;23.50;12.18;;;8.00;99.90;;;;;;5028436;28;20022;-75
2021/10/29 01:48:22;;;;;;;56.20;12.80;;;8.00;99.90;;;;;;5027694;28;20037;-76
2021/10/29 01:50:48;;;;;;;28.17;11.15;;;7.90;99.90;;;;;;5011899;28;20410;-74
2021/10/29 01:53:14;;;;;;;20.23;11.13;;;7.90;99.90;;;;;;5012863;28;20065;-74
2021/10/29 01:55:40;;;;;;;24.95;11.57;;;7.90;99.90;;;;;;5010952;28;20106;-74
2021/10/29 01:58:06;;;;;;;24.48;11.05;;;7.80;99.90;;;;;;5027492;28;20550;-74
2021/10/29 02:00:32;;;;;;;45.45;11.75;;;7.80;99.90;;;;;;5027533;28;20362;-74
2021/10/29 02:02:57;;;;;;;33.28;11.38;;;7.80;99.90;;;;;;5027950;28;20455;-74
2021/10/29 02:05:23;;;;;;;23.27;11.00;;;7.80;99.90;;;;;;5010954;28;20026;-74
2021/10/29 02:07:48;;;;;;;22.60;11.00;;;7.80;99.90;;;;;;5012845;28;20065;-74
2021/10/29 02:10:14;;;;;;;23.10;10.88;;;7.80;99.90;;;;;;5011539;28;20030;-74
2021/10/29 02:12:39;;;;;;;18.55;10.60;;;7.80;99.90;;;;;;5011076;28;20021;-75
2021/10/29 02:15:06;;;;;;;19.30;10.27;;;7.80;99.90;;;;;;5015246;28;20402;-75
2021/10/29 02:17:32;;;;;;;18.85;10.35;;;7.90;99.90;;;;;;5014596;28;20029;-74
2021/10/29 02:19:59;;;;;;;21.15;10.52;;;7.90;99.90;;;;;;5031287;28;20033;-75
2021/10/29 02:22:25;;;;;;;22.30;10.27;;;7.80;99.90;;;;;;5015924;28;20487;-74
2021/10/29 02:24:51;;;;;;;19.90;10.35;;;7.80;99.90;;;;;;5031351;28;20049;-75
2021/10/29 02:27:17;;;;;;;26.85;10.77;;;7.80;99.90;;;;;;5031292;28;20022;-74
2021/10/29 02:29:42;;;;;;;24.85;10.63;;;7.80;99.90;;;;;;5030990;28;20037;-75
2021/10/29 02:32:09;;;;;;;45.83;10.55;;;7.80;99.90;;;;;;5016115;28;20402;-74
2021/10/29 02:34:34;;;;;;;20.67;9.75;;;7.80;99.90;;;;;;5014361;28;20022;-74
2021/10/29 02:37:00;;;;;;;18.10;9.15;;;7.60;99.90;;;;;;5015077;28;20022;-75
2021/10/29 02:39:26;;;;;;;15.30;9.65;;;7.70;99.90;;;;;;5014440;28;20036;-75
2021/10/29 02:41:51;;;;;;;19.33;8.80;;;7.60;99.90;;;;;;5015992;28;20049;-75
2021/10/29 02:44:17;;;;;;;29.50;9.60;;;7.60;99.90;;;;;;5014708;28;20116;-75
2021/10/29 02:46:43;;;;;;;20.67;9.00;;;7.60;99.90;;;;;;5014258;28;20048;-75
2021/10/29 02:49:09;;;;;;;37.25;8.95;;;7.60;99.90;;;;;;5014691;28;20370;-75
2021/10/29 02:51:35;;;;;;;20.40;8.68;;;7.50;99.90;;;;;;5014408;28;20053;-75
2021/10/29 02:54:00;;;;;;;15.30;8.45;;;7.50;99.90;;;;;;5014325;28;20025;-75
2021/10/29 02:56:26;;;;;;;18.60;7.75;;;7.40;99.90;;;;;;5014958;28;20116;-75
2021/10/29 02:58:52;;;;;;;25.50;8.68;;;7.40;99.90;;;;;;5015406;28;20050;-75
2021/10/29 03:01:18;;;;;;;11.07;7.15;;;7.40;99.90;;;;;;5030892;28;20033;-76
2021/10/29 03:03:43;;;;;;;14.88;7.55;;;7.30;99.90;;;;;;5030483;28;20054;-75
2021/10/29 03:06:09;;;;;;;13.85;6.90;;;7.30;99.90;;;;;;5030854;28;20370;-75
2021/10/29 03:08:35;;;;;;;14.02;7.75;;;7.30;99.90;;;;;;5030245;28;20026;-75
2021/10/29 03:11:00;;;;;;;13.90;7.85;;;7.30;99.90;;;;;;5030769;28;20451;-75
2021/10/29 03:13:26;;;;;;;11.73;7.28;;;7.30;99.90;;;;;;5015106;28;20562;-76
2021/10/29 03:15:52;;;;;;;20.30;7.63;;;7.30;99.90;;;;;;5015705;28;20057;-75
2021/10/29 03:18:18;;;;;;;27.52;7.72;;;7.30;99.90;;;;;;5031114;28;20030;-75
2021/10/29 03:20:45;;;;;;;12.13;6.80;;;7.30;99.90;;;;;;5015121;28;20041;-75
2021/10/29 03:23:13;;;;;;;28.40;7.53;;;7.20;99.90;;;;;;5030678;28;20026;-74
2021/10/29 03:25:39;;;;;;;11.35;6.82;;;7.20;99.90;;;;;;5014088;28;20022;-75
2021/10/29 03:28:05;;;;;;;12.63;7.28;;;7.20;99.90;;;;;;5015047;28;20037;-75
2021/10/29 03:30:31;;;;;;;12.70;7.00;;;7.20;99.90;;;;;;5014720;28;20104;-75
2021/10/29 03:32:57;;;;;;;22.30;8.80;;;7.20;99.90;;;;;;5030648;28;20116;-74
2021/10/29 03:35:24;;;;;;;13.35;7.93;;;7.20;99.90;;;;;;5029960;28;20018;-75
2021/10/29 03:45:21;;;;;;;19.30;9.45;;;7.20;99.90;;;;;;5014650;28;20022;-75
2021/10/29 03:47:53;;;;;;;31.02;10.38;;;7.20;99.90;;;;;;5012999;28;20386;-75
2021/10/29 03:52:52;;;;;;;19.52;9.40;;;7.20;99.90;;;;;;5014351;28;20026;-75
2021/10/29 03:55:18;;;;;;;19.40;9.52;;;7.20;99.90;;;;;;5013420;28;20474;-75
2021/10/29 03:57:44;;;;;;;23.38;9.77;;;7.20;99.90;;;;;;5012705;28;20057;-75
2021/10/29 04:00:10;;;;;;;21.65;9.93;;;7.20;99.90;;;;;;5014366;28;20387;-74
2021/10/29 04:02:36;;;;;;;21.27;9.48;;;7.10;99.90;;;;;;5029545;28;20430;-77
2021/10/29 04:05:01;;;;;;;27.58;9.20;;;7.20;99.90;;;;;;5029417;28;20116;-77
2021/10/29 04:07:27;;;;;;;15.30;8.82;;;7.20;99.90;;;;;;5012465;28;20032;-76
2021/10/29 04:09:53;;;;;;;13.48;7.80;;;7.20;99.90;;;;;;5013088;28;20120;-77
2021/10/29 04:12:18;;;;;;;15.65;7.88;;;7.30;99.90;;;;;;5014192;28;20116;-77
2021/10/29 04:14:45;;;;;;;20.38;7.82;;;7.20;99.90;;;;;;5029544;28;20025;-78
2021/10/29 04:17:10;;;;;;;12.75;7.45;;;7.20;99.90;;;;;;5013200;28;20125;-77
2021/10/29 04:19:36;;;;;;;18.60;8.18;;;7.10;99.90;;;;;;5013913;28;20101;-77
2021/10/29 04:22:02;;;;;;;18.60;7.80;;;7.10;99.90;;;;;;5013473;28;20030;-77
2021/10/29 04:24:28;;;;;;;18.33;8.10;;;7.10;99.90;;;;;;5012790;28;20069;-76
2021/10/29 04:26:57;;;;;;;17.00;7.95;;;7.10;99.90;;;;;;5011933;28;20058;-76
2021/10/29 04:29:26;;;;;;;23.13;7.68;;;7.10;99.90;;;;;;5029113;28;20030;-76
2021/10/29 04:31:52;;;;;;;15.15;7.40;;;7.10;99.90;;;;;;5012348;28;20117;-76
2021/10/29 04:34:24;;;;;;;26.17;7.77;;;7.00;99.90;;;;;;5012648;28;20033;-76
2021/10/29 04:36:50;;;;;;;16.67;7.18;;;7.00;99.90;;;;;;5011779;28;20169;-75
2021/10/29 04:39:16;;;;;;;34.72;6.65;;;7.00;99.90;;;;;;5012258;28;20033;-76
2021/10/29 04:41:46;;;;;;;32.72;7.00;;;7.00;99.90;;;;;;5013619;28;20084;-77
2021/10/29 04:44:13;;;;;;;23.38;7.05;;;6.90;99.90;;;;;;5029616;28;20026;-77
2021/10/29 04:46:40;;;;;;;13.50;6.32;;;6.90;99.90;;;;;;5013552;28;20026;-77
2021/10/29 04:49:06;;;;;;;13.60;6.50;;;6.90;99.90;;;;;;5013764;28;20463;-77
2021/10/29 04:51:33;;;;;;;9.50;5.73;;;6.90;99.90;;;;;;5012277;28;20029;-78
2021/10/29 04:53:59;;;;;;;9.03;5.40;;;6.90;99.90;;;;;;5013863;28;20169;-77
2021/10/29 04:56:25;;;;;;;10.43;5.18;;;7.00;99.90;;;;;;5014208;28;20026;-77
2021/10/29 04:58:51;;;;;;;11.73;5.63;;;7.00;99.90;;;;;;5011595;28;20582;-77
2021/10/29 05:01:17;;;;;;;17.63;5.20;;;6.90;99.90;;;;;;5012267;28;20029;-77
2021/10/29 05:03:44;;;;;;;13.83;6.33;;;6.90;99.90;;;;;;5028474;28;20018;-77
2021/10/29 05:06:09;;;;;;;20.23;6.07;;;6.90;99.90;;;;;;5012534;28;20033;-76
2021/10/29 05:08:38;;;;;;;16.15;5.70;;;6.80;99.90;;;;;;5011864;28;20371;-77
2021/10/29 05:11:07;;;;;;;15.77;6.10;;;6.80;99.90;;;;;;5028614;28;20037;-76
2021/10/29 05:13:33;;;;;;;14.67;5.70;;;6.80;99.90;;;;;;5013013;28;20018;-76
2021/10/29 05:15:59;;;;;;;13.70;5.97;;;6.80;99.90;;;;;;5012447;28;20022;-77
2021/10/29 05:18:25;;;;;;;11.65;5.80;;;6.80;99.90;;;;;;5012183;28;20117;-77
2021/10/29 05:20:51;;;;;;;9.05;5.28;;;6.80;99.90;;;;;;5011926;28;20022;-77
2021/10/29 05:23:17;;;;;;;22.47;5.90;;;6.80;99.90;;;;;;5013687;28;20022;-77
2021/10/29 05:25:43;;;;;;;14.63;6.38;;;6.80;99.90;;;;;;5012068;28;20128;-77
2021/10/29 05:28:09;;;;;;;19.57;5.23;;;6.80;99.90;;;;;;5012258;28;20129;-77
2021/10/29 05:30:36;;;;;;;11.57;6.00;;;6.80;99.90;;;;;;5028297;28;20029;-77
2021/10/29 05:33:01;;;;;;;9.70;5.03;;;6.70;99.90;;;;;;5012026;28;20060;-77
2021/10/29 05:35:27;;;;;;;28.67;5.90;;;6.70;99.90;;;;;;5028822;28;20022;-76
2021/10/29 05:37:53;;;;;;;14.43;5.22;;;6.70;99.90;;;;;;5011757;28;20463;-77
2021/10/29 05:40:19;;;;;;;8.87;4.87;;;6.70;99.90;;;;;;5012169;28;20441;-77
2021/10/29 05:42:45;;;;;;;12.30;5.00;;;6.80;99.90;;;;;;5012670;28;20093;-77
2021/10/29 05:45:12;;;;;;;8.65;5.18;;;6.70;99.90;;;;;;5011957;28;20113;-77
2021/10/29 05:47:39;;;;;;;10.57;4.87;;;6.60;99.90;;;;;;5028040;28;20121;-78
2021/10/29 05:50:10;;;;;;;7.53;4.80;;;6.60;99.90;;;;;;5014816;28;20030;-77
2021/10/29 05:52:39;;;;;;;7.28;4.75;;;6.60;99.90;;;;;;5017094;28;20471;-79
2021/10/29 05:57:44;;;;;;;15.10;5.30;;;6.50;99.90;;;;;;5016326;28;20054;-77
2021/10/29 06:00:12;;;;;;;9.77;4.90;;;6.50;99.90;;;;;;5016001;28;20188;-76
2021/10/29 06:02:38;;;;;;;7.67;4.43;;;6.50;99.90;;;;;;5015274;28;20026;-78
2021/10/29 06:05:05;;;;;;;8.20;4.70;;;6.60;99.90;;;;;;5016754;28;20022;-77
2021/10/29 06:07:32;;;;;;;7.10;4.30;;;6.50;99.90;;;;;;5015395;28;20045;-77
2021/10/29 06:09:58;;;;;;;6.57;4.20;;;6.50;99.90;;;;;;5014526;28;20033;-76
2021/10/29 06:12:24;;;;;;;10.73;4.67;;;6.50;99.90;;;;;;5015121;28;20026;-76
2021/10/29 06:14:50;;;;;;;7.50;4.87;;;6.40;99.90;;;;;;5014437;28;20104;-77
2021/10/29 06:17:18;;;;;;;8.37;4.60;;;6.30;99.90;;;;;;5015192;28;20463;-76
2021/10/29 06:19:45;;;;;;;7.10;5.00;;;6.40;99.90;;;;;;5014753;28;20028;-77
2021/10/29 06:22:29;;;;;;;10.37;5.37;;;6.30;99.90;;;;;;5015363;28;20026;-77
2021/10/29 06:24:56;;;;;;;7.67;4.90;;;6.40;99.90;;;;;;5016052;28;20379;-76
2021/10/29 06:29:51;;;;;;;9.07;5.60;;;6.40;99.90;;;;;;5015969;28;20029;-77
2021/10/29 06:32:20;;;;;;;8.93;5.20;;;6.40;99.90;;;;;;5016318;28;20064;-77
2021/10/29 06:34:46;;;;;;;10.80;5.80;;;6.40;99.90;;;;;;5014903;28;20116;-77
2021/10/29 06:37:16;;;;;;;7.27;5.13;;;6.40;99.90;;;;;;5015483;28;20025;-77
2021/10/29 06:39:44;;;;;;;9.13;6.10;;;6.40;99.90;;;;;;5016084;28;20352;-76
2021/10/29 06:42:15;;;;;;;16.30;6.37;;;6.40;99.90;;;;;;5016186;28;20026;-76
2021/10/29 06:45:43;;;;;;;10.77;6.33;;;6.50;99.90;;;;;;5030865;28;20036;-77
2021/10/29 07:01:01;;;;;;;13.07;6.90;;;6.50;99.90;;;;;;5014475;28;20083;-77
2021/10/29 07:03:50;;;;;;;9.60;6.30;;;6.50;99.90;;;;;;5031097;28;20122;-76
2021/10/29 07:41:36;;;;;;;10.93;6.27;;;6.50;99.90;;;;;;5014965;28;20048;-78
2021/10/29 07:44:12;;;;;;;12.13;6.90;;;6.60;99.90;;;;;;5012842;28;20033;-76
2021/10/29 07:46:38;;;;;;;8.97;5.90;;;6.60;99.90;;;;;;5013524;28;20018;-77
2021/10/29 07:49:06;;;;;;;10.03;5.97;;;6.60;99.90;;;;;;5013695;28;20094;-77
2021/10/29 07:51:32;;;;;;;12.20;7.23;;;6.60;99.90;;;;;;5029792;28;20481;-77
2021/10/29 07:53:57;;;;;;;13.80;6.77;;;6.60;99.90;;;;;;5013549;28;20057;-77
2021/10/29 07:56:23;;;;;;;11.93;6.87;;;6.60;99.90;;;;;;5013971;28;20398;-77
2021/10/29 07:58:49;;;;;;;13.23;7.60;;;6.60;99.90;;;;;;5008801;28;20135;-77
2021/10/29 08:01:14;;;;;;;12.17;7.07;;;6.60;99.90;;;;;;5013126;28;20018;-76
2021/10/29 08:03:40;;;;;;;12.23;7.20;;;6.70;99.90;;;;;;5013872;28;20030;-77
2021/10/29 08:06:06;;;;;;;14.47;7.13;;;6.70;99.90;;;;;;5029113;28;20030;-76
2021/10/29 08:08:31;;;;;;;14.93;8.20;;;6.70;99.90;;;;;;5029183;28;20030;-77
2021/10/29 08:10:57;;;;;;;9.40;6.47;;;6.70;99.90;;;;;;5028814;28;20034;-76
2021/10/29 08:13:23;;;;;;;9.93;6.47;;;6.80;99.90;;;;;;5028626;28;20025;-77
2021/10/29 08:15:53;;;;;;;11.47;7.13;;;6.90;99.90;;;;;;5012693;28;20022;-77
2021/10/29 08:18:21;;;;;;;10.33;7.20;;;7.00;99.90;;;;;;5013009;28;20446;-76
2021/10/29 08:20:47;;;;;;;12.27;6.93;;;7.00;99.90;;;;;;5028528;28;20518;-77
2021/10/29 08:23:13;;;;;;;13.27;7.15;;;7.00;99.90;;;;;;5028696;28;20053;-77
2021/10/29 08:25:40;;;;;;;11.83;6.70;;;7.00;99.90;;;;;;5028110;28;20030;-77
2021/10/29 08:28:09;;;;;;;11.17;6.93;;;7.00;99.90;;;;;;5028000;28;20038;-75
2021/10/29 08:30:35;;;;;;;10.93;6.78;;;7.10;99.90;;;;;;5028609;28;20475;-76
2021/10/29 08:33:01;;;;;;;10.63;6.90;;;7.00;99.90;;;;;;5027878;28;20029;-75
2021/10/29 08:35:27;;;;;;;11.60;7.10;;;7.00;99.90;;;;;;5012807;28;20414;-78
2021/10/29 08:37:53;;;;;;;9.88;6.15;;;7.00;99.90;;;;;;5010041;28;20442;-77
2021/10/29 08:40:25;;;;;;;10.05;7.18;;;7.00;99.90;;;;;;5013455;28;20033;-76
2021/10/29 08:42:50;;;;;;;12.52;6.90;;;7.10;99.90;;;;;;5010294;28;20072;-78
2021/10/29 08:45:18;;;;;;;15.10;7.35;;;7.10;99.90;;;;;;5012540;28;20053;-77
2021/10/29 08:47:46;;;;;;;12.88;7.55;;;7.20;99.90;;;;;;5011614;28;20029;-81
2021/10/29 08:50:17;;;;;;;13.10;7.85;;;7.30;99.90;;;;;;5010578;28;20073;-78
2021/10/29 08:52:45;;;;;;;14.15;7.85;;;7.20;99.90;;;;;;5027315;28;20022;-79
2021/10/29 08:55:13;;;;;;;16.90;8.18;;;7.10;99.90;;;;;;5026757;28;20455;-74
2021/10/29 08:57:39;;;;;;;12.70;7.93;;;7.10;99.90;;;;;;5026507;28;20081;-73
2021/10/29 09:00:14;;;;;;;13.32;8.50;;;7.10;99.90;;;;;;5022694;28;20030;-75
2021/10/29 09:02:55;;;;;;;13.23;7.97;;;7.20;99.90;;;;;;5009452;28;20478;-75
2021/10/29 09:05:33;;;;;;;14.70;8.43;;;7.20;99.90;;;;;;5008439;28;20474;-75
2021/10/29 09:08:20;;;;;;;14.05;7.68;;;7.20;99.90;;;;;;5008835;28;20017;-74
2021/10/29 09:31:36;;;;;;;14.50;8.05;;;7.70;99.90;;;;;;5004553;28;20435;-76
2021/10/29 09:34:12;;;;;;;15.35;8.02;;;7.70;99.90;;;;;;5008454;28;20014;-76
2021/10/29 09:36:41;;;;;;;17.20;8.63;;;7.80;99.90;;;;;;5023472;28;20113;-75
2021/10/29 09:39:13;;;;;;;14.18;8.00;;;7.90;99.90;;;;;;5007617;28;20040;-77
2021/10/29 09:41:40;;;;;;;16.50;8.57;;;8.00;99.90;;;;;;5006945;28;20073;-74
2021/10/29 09:44:10;;;;;;;13.65;7.90;;;8.00;99.90;;;;;;5023133;28;20518;-74
2021/10/29 09:46:55;;;;;;;13.45;8.50;;;8.10;99.90;;;;;;5007276;28;20022;-74
2021/10/29 09:49:51;;;;;;;13.38;8.27;;;8.20;99.90;;;;;;5006738;28;20026;-75
2021/10/29 09:57:18;;;;;;;12.57;8.07;;;8.20;99.90;;;;;;5010617;28;20034;-73
2021/10/29 09:59:52;;;;;;;12.15;8.18;;;8.30;99.90;;;;;;5008812;28;20022;-75
2021/10/29 10:02:21;;;;;;;13.38;8.02;;;8.40;99.90;;;;;;5010792;28;20543;-74
2021/10/29 10:04:53;;;;;;;12.13;7.60;;;8.30;99.90;;;;;;5007775;28;20387;-77
2021/10/29 10:07:23;;;;;;;11.73;7.65;;;8.40;99.90;;;;;;5009105;28;20033;-75
2021/10/29 10:09:57;;;;;;;12.43;7.80;;;8.40;99.90;;;;;;5008709;28;20123;-79
2021/10/29 10:12:26;;;;;;;12.70;7.90;;;8.40;99.90;;;;;;5010120;28;20030;-76
2021/10/29 10:14:53;;;;;;;12.48;8.02;;;8.40;99.90;;;;;;5008905;28;20026;-77
2021/10/29 10:17:21;;;;;;;13.52;7.68;;;8.50;99.90;;;;;;5024495;28;20034;-76
2021/10/29 10:19:48;;;;;;;13.65;8.18;;;8.60;99.90;;;;;;5006473;28;20043;-75
2021/10/29 10:22:17;;;;;;;13.57;8.10;;;8.60;99.90;;;;;;5023318;28;20064;-76
2021/10/29 10:24:46;;;;;;;12.75;7.38;;;8.60;99.90;;;;;;5008896;28;20030;-77
2021/10/29 10:29:55;;;;;;;15.32;8.85;;;8.80;99.90;;;;;;5009969;28;20121;-76
2021/10/29 10:43:45;;;;;;;12.43;7.70;;;8.80;99.90;;;;;;5003668;28;20036;-76
2021/10/29 10:46:19;;;;;;;12.63;8.20;;;8.80;99.80;;;;;;5011982;28;20024;-75
2021/10/29 10:49:09;;;;;;;14.40;8.35;;;8.90;99.90;;;;;;5010220;28;20034;-76
2021/10/29 10:51:45;;;;;;;16.90;8.18;;;8.90;99.90;;;;;;5010278;28;20467;-76
2021/10/29 10:54:44;;;;;;;17.27;9.27;;;8.90;99.90;;;;;;5010539;28;20088;-76
2021/10/29 11:00:11;;;;;;;12.77;8.00;;;9.10;99.90;;;;;;5011512;28;20395;-74
2021/10/29 11:11:00;;;;;;;12.45;8.00;;;9.60;99.90;;;;;;4998659;28;20513;-77
2021/10/29 11:13:56;;;;;;;13.20;8.07;;;9.70;99.90;;;;;;5008206;28;20092;-76
2021/10/29 11:16:38;;;;;;;14.13;8.80;;;9.70;99.90;;;;;;5009843;28;20030;-78
2021/10/29 11:19:18;;;;;;;12.82;8.40;;;9.80;99.90;;;;;;5000243;28;20022;-77
2021/10/29 11:21:57;;;;;;;13.68;8.02;;;9.70;99.60;;;;;;5009454;28;20022;-79
2021/10/29 11:24:35;;;;;;;13.98;8.85;;;9.60;99.50;;;;;;5026506;28;20080;-79
2021/10/29 11:27:15;;;;;;;16.33;8.75;;;9.50;99.80;;;;;;5010495;28;20100;-75
2021/10/29 11:29:49;;;;;;;16.17;9.85;;;9.50;99.70;;;;;;5004450;28;20072;-78
2021/10/29 11:32:20;;;;;;;16.65;10.63;;;9.60;99.60;;;;;;5008011;28;20026;-77
2021/10/29 11:34:53;;;;;;;16.20;10.77;;;9.60;99.90;;;;;;5011243;28;20021;-80
2021/10/29 11:37:20;;;;;;;15.35;9.85;;;9.70;99.90;;;;;;5008530;28;20635;-76
2021/10/29 11:39:45;;;;;;;16.98;10.23;;;9.80;99.70;;;;;;5010109;28;20029;-76
2021/10/29 11:42:11;;;;;;;16.52;9.57;;;9.80;99.20;;;;;;5008672;28;20029;-75
2021/10/29 11:44:39;;;;;;;15.63;10.50;;;9.90;99.10;;;;;;5006493;28;20030;-76
2021/10/29 11:47:05;;;;;;;17.50;9.75;;;9.90;98.80;;;;;;5011285;28;20084;-78
2021/10/29 11:49:31;;;;;;;16.50;10.57;;;10.00;98.70;;;;;;5009792;28;20033;-76
2021/10/29 11:52:03;;;;;;;18.52;10.60;;;10.20;98.40;;;;;;5023588;28;20096;-79
2021/10/29 11:54:38;;;;;;;18.45;10.40;;;10.40;98.40;;;;;;5011829;28;20132;-74
2021/10/29 11:57:42;;;;;;;18.63;10.30;;;10.60;97.90;;;;;;5008980;28;20127;-75
2021/10/29 12:07:36;;;;;;;19.67;11.82;;;11.10;96.60;;;;;;5010151;28;20494;-76
2021/10/29 12:10:12;;;;;;;17.75;11.90;;;11.20;96.20;;;;;;5006564;28;20029;-75
2021/10/29 12:12:40;;;;;;;19.95;12.10;;;11.30;96.40;;;;;;5011185;28;20524;-75
2021/10/29 12:15:13;;;;;;;18.77;12.38;;;11.50;96.10;;;;;;5009431;28;20521;-74
2021/10/29 12:17:49;;;;;;;22.95;12.50;;;11.70;95.80;;;;;;5009390;28;20064;-76
2021/10/29 12:20:26;;;;;;;20.90;12.15;;;11.70;95.70;;;;;;5008694;28;20025;-74
2021/10/29 12:22:59;;;;;;;22.00;13.32;;;11.70;95.60;;;;;;5006768;28;20026;-74
2021/10/29 12:28:05;;;;;;;20.60;11.80;;;12.20;95.10;;;;;;5008057;28;20071;-75
2021/10/29 12:51:51;;;;;;;22.40;12.70;;;14.40;90.30;;;;;;5006362;28;20493;-75
2021/10/29 13:04:11;;;;;;;20.58;12.05;;;16.60;80.50;;;;;;5006821;28;20113;-76
2021/10/29 13:06:43;;;;;;;19.42;11.27;;;16.90;78.90;;;;;;5007193;28;20033;-76
2021/10/29 13:09:27;;;;;;;;;;;17.20;78.10;;;;;;5008743;28;20113;-77
2021/10/29 13:12:03;;;;;;;19.83;11.13;;;17.70;73.80;;;;;;5008263;28;19913;-75
2021/10/29 13:14:36;;;;;;;15.93;10.98;;;17.80;73.30;;;;;;5020974;28;20022;-75
2021/10/29 13:17:05;;;;;;;21.00;11.32;;;18.10;72.50;;;;;;4998124;28;20057;-75
2021/10/29 13:25:09;;;;;;;16.25;10.73;;;18.40;71.20;;;;;;5008617;28;20053;-75
2021/10/29 13:28:11;;;;;;;17.75;10.43;;;17.90;71.90;;;;;;5009020;28;20041;-74
2021/10/29 13:36:22;;;;;;;17.05;10.80;;;16.30;79.30;;;;;;5005048;28;20034;-74
2021/10/29 13:55:28;;;;;;;18.55;10.52;;;14.90;87.00;;;;;;5009056;28;20032;-77
2021/10/29 14:29:40;;;;;;;20.50;10.90;;;13.40;92.10;;;;;;5012922;28;20129;-79
2021/10/29 14:34:37;;;;;;;18.00;10.95;;;13.30;92.60;;;;;;5013251;28;20509;-80
2021/10/29 14:37:16;;;;;;;22.15;11.57;;;13.20;92.70;;;;;;5000462;28;20030;-80
2021/10/29 14:39:52;;;;;;;20.35;11.13;;;13.10;93.40;;;;;;5013246;28;20034;-80
2021/10/29 14:45:05;;;;;;;18.20;10.45;;;13.00;93.80;;;;;;5012812;28;20026;-80
2021/10/29 14:47:39;;;;;;;21.98;11.52;;;12.90;94.00;;;;;;5012403;28;20362;-79
2021/10/29 15:01:13;;;;;;;24.80;12.13;;;12.60;94.80;;;;;;4998297;28;20076;-77
2021/10/29 15:29:08;;;;;;;23.20;13.13;;;12.40;96.00;;;;;;5009180;28;20398;-82
2021/10/29 15:42:43;;;;;;;22.50;13.70;;;12.10;96.80;;;;;;5011411;28;20083;-82
2021/10/29 15:45:12;;;;;;;25.83;14.65;;;12.10;96.90;;;;;;5007725;28;20024;-81
2021/10/29 15:47:59;;;;;;;27.58;15.65;;;12.00;97.10;;;;;;5011077;28;20034;-81
2021/10/29 15:50:31;;;;;;;29.92;16.05;;;11.90;97.30;;;;;;5009423;28;20026;-81
2021/10/29 15:52:57;;;;;;;36.58;16.30;;;11.80;97.50;;;;;;5009347;28;20082;-82
2021/10/29 15:55:34;;;;;;;37.83;17.33;;;11.70;97.60;;;;;;5009850;28;20157;-81
2021/10/29 16:17:06;;;;;;;38.22;19.30;;;10.90;99.30;;;;;;4998413;28;20149;-76
2021/10/29 16:19:33;;;;;;;36.58;19.63;;;10.80;99.40;;;;;;5008780;28;20433;-76
2021/10/29 16:22:00;;;;;;;46.63;21.35;;;10.80;99.50;;;;;;5007878;28;20091;-77
2021/10/29 16:24:26;;;;;;;42.08;21.00;;;10.80;99.60;;;;;;5008100;28;20101;-76
2021/10/29 16:26:53;;;;;;;39.83;20.75;;;10.60;99.90;;;;;;5025093;28;20065;-79
2021/10/29 16:29:23;;;;;;;43.05;21.48;;;10.50;99.90;;;;;;5007340;28;20034;-77
2021/10/29 16:31:49;;;;;;;48.28;22.50;;;10.50;99.90;;;;;;5007566;28;20026;-83
2021/10/29 16:34:15;;;;;;;41.30;21.38;;;10.40;99.90;;;;;;5008516;28;20459;-76
2021/10/29 16:36:42;;;;;;;43.85;22.00;;;10.40;99.90;;;;;;5008124;28;20157;-75
2021/10/29 16:39:08;;;;;;;46.47;22.15;;;10.30;99.90;;;;;;5025380;28;20168;-77
2021/10/29 16:41:34;;;;;;;46.72;21.95;;;10.30;99.90;;;;;;5008045;28;20026;-74
2021/10/29 16:44:00;;;;;;;41.47;21.45;;;10.30;99.90;;;;;;5008276;28;20022;-74
2021/10/29 16:46:26;;;;;;;44.45;21.73;;;10.30;99.90;;;;;;5024411;28;20084;-75
2021/10/29 16:48:52;;;;;;;45.22;22.90;;;10.30;99.90;;;;;;5008312;28;20455;-74
2021/10/29 16:51:18;;;;;;;45.78;21.55;;;10.30;99.90;;;;;;5009011;28;20028;-74
2021/10/29 16:53:44;;;;;;;39.97;19.73;;;10.10;99.90;;;;;;5008209;28;20118;-74
2021/10/29 16:56:12;;;;;;;41.28;20.58;;;10.10;99.90;;;;;;5007578;28;20525;-74
2021/10/29 16:58:42;;;;;;;44.72;20.77;;;9.90;99.90;;;;;;5024357;28;20058;-74
2021/10/29 17:01:08;;;;;;;40.03;19.15;;;9.90;99.90;;;;;;5007495;28;20033;-75
2021/10/29 17:03:33;;;;;;;40.20;18.30;;;9.80;99.90;;;;;;5006707;28;20072;-77
2021/10/29 17:05:59;;;;;;;35.38;18.83;;;9.80;99.90;;;;;;5025879;28;20034;-81
2021/10/29 17:08:25;;;;;;;36.85;17.25;;;9.60;99.90;;;;;;5008920;28;20032;-77
2021/10/29 17:10:52;;;;;;;35.95;16.50;;;9.70;99.90;;;;;;5008144;28;20030;-75
2021/10/29 17:13:17;;;;;;;34.15;16.98;;;9.60;99.90;;;;;;5008882;28;20316;-74
2021/10/29 17:15:43;;;;;;;34.17;16.58;;;9.50;99.90;;;;;;5008262;28;20125;-74
2021/10/29 17:18:10;;;;;;;33.13;15.23;;;9.50;99.90;;;;;;5011538;28;20036;-75
2021/10/29 17:20:36;;;;;;;33.53;16.25;;;9.50;99.90;;;;;;5014920;28;20450;-75
2021/10/29 17:23:03;;;;;;;32.03;15.88;;;9.60;99.90;;;;;;5007543;28;20038;-76
2021/10/29 17:25:29;;;;;;;36.45;16.85;;;9.60;99.90;;;;;;5007430;28;20030;-74
2021/10/29 17:27:55;;;;;;;30.83;15.60;;;9.60;99.90;;;;;;5023829;28;20459;-74
2021/10/29 17:30:21;;;;;;;31.60;15.13;;;9.50;99.90;;;;;;5007122;28;20113;-74
2021/10/29 17:32:48;;;;;;;37.55;16.13;;;9.50;99.90;;;;;;5005660;28;20482;-73
2021/10/29 17:35:15;;;;;;;30.92;15.75;;;9.40;99.90;;;;;;5006995;28;20022;-73